Time;durP1;ratioP1;P1;durP2;ratioP2;P2;SDS_P1;SDS_P2;PMS_P1;PMS_P2;Temp;Humidity;BMP_temperature;BMP_pressure;BME280_temperature;BME280_humidity;BME280_pressure;Samples;Min_cycle;Max_cycle;Signal;HPM_P1;HPM_P2
2021/07/20 00:02:46;;;;;;;39.08;11.60;;;;;;;23.65;75.31;99374.16;1714592;83;21830;-80
2021/07/20 00:05:51;;;;;;;33.45;11.83;;;;;;;23.59;75.56;99370.53;1714675;83;21356;-88
2021/07/20 00:08:56;;;;;;;26.55;11.60;;;;;;;23.57;75.71;99370.53;1713303;83;21176;-88
2021/07/20 00:12:02;;;;;;;30.62;11.60;;;;;;;23.54;75.91;99364.14;1713288;83;21337;-80
2021/07/20 00:15:06;;;;;;;33.13;12.65;;;;;;;23.54;76.03;99353.81;1711218;83;21204;-79
2021/07/20 00:18:17;;;;;;;36.95;12.15;;;;;;;23.53;76.08;99346.56;1714559;83;21309;-79
2021/07/20 00:21:23;;;;;;;33.65;13.03;;;;;;;23.54;76.28;99344.04;1713758;83;21843;-87
2021/07/20 00:24:28;;;;;;;27.50;12.25;;;;;;;23.52;76.43;99342.64;1713954;83;21170;-79
2021/07/20 00:27:34;;;;;;;37.70;13.08;;;;;;;23.46;76.64;99342.66;1714519;83;21361;-79
2021/07/20 00:30:41;;;;;;;31.35;13.03;;;;;;;23.45;76.76;99345.75;1714017;83;21262;-79
2021/07/20 00:33:47;;;;;;;29.07;11.68;;;;;;;23.45;76.87;99342.95;1714638;83;21210;-88
2021/07/20 00:36:52;;;;;;;32.78;12.25;;;;;;;23.45;76.92;99349.38;1713403;83;21353;-77
2021/07/20 00:39:58;;;;;;;39.95;12.37;;;;;;;23.44;76.99;99350.49;1714555;83;21174;-80
2021/07/20 00:43:04;;;;;;;40.92;13.18;;;;;;;23.45;77.01;99344.35;1714539;83;21297;-79
2021/07/20 00:46:10;;;;;;;39.38;12.95;;;;;;;23.44;77.13;99349.09;1713820;83;21854;-80
2021/07/20 00:49:16;;;;;;;39.58;13.58;;;;;;;23.38;77.40;99345.20;1714556;83;21305;-79
2021/07/20 00:52:21;;;;;;;36.28;12.75;;;;;;;23.32;77.72;99347.73;1713190;83;21357;-79
2021/07/20 00:55:27;;;;;;;36.75;12.35;;;;;;;23.25;78.14;99344.42;1713544;83;21848;-79
2021/07/20 00:58:33;;;;;;;32.53;12.98;;;;;;;23.17;78.42;99345.27;1714405;83;21341;-80
2021/07/20 01:01:38;;;;;;;40.73;12.85;;;;;;;23.15;78.85;99341.10;1713149;83;21313;-79
2021/07/20 01:04:44;;;;;;;33.25;12.33;;;;;;;23.11;79.12;99342.78;1713227;83;21814;-80
2021/07/20 01:07:53;;;;;;;34.70;12.30;;;;;;;23.10;79.24;99340.55;1714647;83;21283;-88
2021/07/20 01:11:02;;;;;;;43.40;13.45;;;;;;;23.10;79.43;99344.73;1714103;83;21822;-88
2021/07/20 01:14:11;;;;;;;38.10;13.60;;;;;;;23.07;79.65;99345.85;1693440;83;21329;-88
2021/07/20 01:17:19;;;;;;;37.80;13.93;;;;;;;23.04;79.81;99342.22;1707269;84;21313;-88
2021/07/20 01:20:26;;;;;;;33.70;11.70;;;;;;;23.01;79.94;99339.45;1708805;84;21322;-88
2021/07/20 01:23:46;;;;;;;30.10;11.88;;;;;;;22.99;80.18;99335.27;1708926;84;21203;-88
2021/07/20 01:26:53;;;;;;;38.13;12.10;;;;;;;22.95;80.36;99336.38;1707938;84;21222;-87
2021/07/20 01:30:00;;;;;;;32.42;12.35;;;;;;;22.92;80.67;99328.59;1708450;84;21369;-87
2021/07/20 01:33:07;;;;;;;33.35;13.20;;;;;;;22.88;80.84;99335.81;1709059;84;21708;-87
2021/07/20 01:36:14;;;;;;;31.70;14.20;;;;;;;22.86;80.94;99331.06;1707796;84;21202;-86
2021/07/20 01:39:21;;;;;;;38.80;13.85;;;;;;;22.83;81.06;99326.89;1709099;84;21183;-87
2021/07/20 01:42:28;;;;;;;25.97;11.50;;;;;;;22.83;81.16;99324.11;1709051;84;21863;-79
2021/07/20 01:45:39;;;;;;;30.10;12.40;;;;;;;22.83;81.21;99326.06;1707996;84;21191;-79
2021/07/20 01:48:50;;;;;;;44.48;13.18;;;;;;;22.84;81.13;99325.77;1708922;84;21289;-79
2021/07/20 01:51:55;;;;;;;32.93;12.58;;;;;;;22.87;80.99;99324.39;1708979;84;21321;-79
2021/07/20 01:55:02;;;;;;;30.57;12.65;;;;;;;22.91;80.81;99326.90;1709062;84;21883;-79
2021/07/20 01:58:08;;;;;;;40.40;13.00;;;;;;;22.92;80.64;99329.42;1709071;84;21874;-79
2021/07/20 02:01:17;;;;;;;37.63;13.43;;;;;;;22.93;80.48;99321.33;1707117;84;21811;-79
2021/07/20 02:11:24;;;;;;;35.33;12.82;;;;;;;22.88;80.53;99335.81;1708279;84;21736;-88
2021/07/20 02:14:41;;;;;;;27.27;12.78;;;;;;;22.82;80.80;99341.09;1709113;84;21309;-79
2021/07/20 02:17:42;;;;;;;46.23;12.40;;;;;;;22.74;81.28;99347.26;1705924;84;21366;-87
2021/07/20 02:20:47;;;;;;;31.50;12.47;;;;;;;22.66;81.75;99348.08;1708547;84;21321;-87
2021/07/20 02:24:01;;;;;;;43.48;12.80;;;;;;;22.63;82.06;99340.30;1709035;84;21328;-87
2021/07/20 02:27:11;;;;;;;34.85;12.85;;;;;;;22.68;82.24;99345.03;1707671;84;21293;-87
2021/07/20 02:30:26;;;;;;;40.52;12.50;;;;;;;22.78;82.08;99341.41;1708977;84;21305;-80
2021/07/20 02:33:33;;;;;;;24.35;12.55;;;;;;;22.97;81.52;99346.70;1709084;84;21175;-80
2021/07/20 02:36:38;;;;;;;27.45;12.23;;;;;;;23.16;80.72;99336.63;1709057;84;21309;-80
2021/07/20 02:39:43;;;;;;;33.28;12.73;;;;;;;23.34;79.80;99342.73;1709198;84;21207;-87
2021/07/20 02:42:48;;;;;;;38.70;13.70;;;;;;;23.50;79.01;99344.89;1709075;84;21206;-88
2021/07/20 02:45:54;;;;;;;28.10;12.35;;;;;;;23.66;78.23;99344.56;1707867;84;21354;-87
2021/07/20 02:49:00;;;;;;;43.25;14.18;;;;;;;23.83;77.55;99337.80;1709104;84;21222;-80
2021/07/20 02:52:06;;;;;;;44.30;13.78;;;;;;;24.01;76.72;99344.13;1709155;84;21652;-80
2021/07/20 02:55:13;;;;;;;36.42;14.78;;;;;;;24.19;75.91;99342.06;1709205;84;21323;-88
2021/07/20 02:58:19;;;;;;;45.05;15.18;;;;;;;24.39;74.98;99345.87;1708899;84;21286;-81
2021/07/20 03:01:26;;;;;;;36.93;14.75;;;;;;;24.56;73.94;99344.91;1708428;84;21322;-80
2021/07/20 03:04:34;;;;;;;39.27;14.98;;;;;;;24.74;73.26;99348.36;1709007;84;21198;-80
2021/07/20 03:07:41;;;;;;;42.05;16.70;;;;;;;24.92;72.50;99347.38;1707816;84;21182;-80
2021/07/20 03:10:47;;;;;;;42.62;17.10;;;;;;;25.06;71.76;99347.52;1708437;84;21345;-80
2021/07/20 03:14:00;;;;;;;38.20;14.83;;;;;;;25.21;71.24;99352.41;1708943;84;21183;-80
2021/07/20 03:17:09;;;;;;;40.10;15.53;;;;;;;25.35;70.37;99356.73;1707471;84;21356;-88
2021/07/20 03:20:17;;;;;;;58.50;14.03;;;;;;;25.44;69.93;99360.56;1708933;84;21219;-80
2021/07/20 03:23:24;;;;;;;35.33;14.87;;;;;;;25.51;69.72;99363.59;1709125;84;21186;-88
2021/07/20 03:26:29;;;;;;;31.02;14.83;;;;;;;25.57;69.54;99363.22;1708859;84;21643;-88
2021/07/20 03:29:40;;;;;;;32.65;14.35;;;;;;;25.70;69.11;99361.10;1708994;84;21226;-85
2021/07/20 03:32:47;;;;;;;45.28;15.03;;;;;;;25.85;68.59;99360.67;1707977;84;21261;-87
2021/07/20 03:36:07;;;;;;;45.48;18.37;;;;;;;25.99;68.00;99363.00;1707647;84;21179;-87
2021/07/20 03:39:12;;;;;;;66.92;26.20;;;;;;;26.09;67.75;99355.02;1709082;84;21902;-87
2021/07/20 03:42:18;;;;;;;72.78;33.45;;;;;;;26.25;67.16;99359.25;1709019;84;21334;-87
2021/07/20 03:45:22;;;;;;;79.12;32.23;;;;;;;26.35;66.67;99361.06;1707656;84;21214;-86
2021/07/20 03:48:28;;;;;;;58.40;24.10;;;;;;;26.43;66.48;99363.23;1708818;84;21341;-87
2021/07/20 03:51:40;;;;;;;43.70;18.57;;;;;;;26.57;66.29;99359.91;1707912;84;21329;-79
2021/07/20 03:54:45;;;;;;;49.08;18.67;;;;;;;26.74;65.95;99365.81;1709158;84;21175;-79
2021/07/20 03:57:49;;;;;;;49.55;17.00;;;;;;;26.91;65.45;99358.78;1709020;84;21313;-79
2021/07/20 04:00:58;;;;;;;45.67;18.15;;;;;;;27.05;64.96;99356.84;1708444;84;21348;-86
2021/07/20 04:04:04;;;;;;;47.65;15.53;;;;;;;27.20;64.49;99361.41;1709335;84;21341;-86
2021/07/20 04:07:29;;;;;;;37.98;16.80;;;;;;;27.29;64.20;99358.69;1708460;84;21301;-87
2021/07/20 04:10:36;;;;;;;43.73;15.15;;;;;;;27.32;64.35;99360.88;1708630;84;21219;-87
2021/07/20 04:13:50;;;;;;;38.90;15.70;;;;;;;27.36;64.24;99354.91;1709010;84;21296;-79
2021/07/20 04:16:57;;;;;;;46.13;16.02;;;;;;;27.44;64.08;99349.98;1707097;84;21317;-79
2021/07/20 04:20:03;;;;;;;44.98;16.23;;;;;;;27.47;63.62;99345.96;1709391;83;21214;-86
2021/07/20 04:23:09;;;;;;;38.60;17.30;;;;;;;27.47;63.43;99354.96;1714527;83;21289;-80
2021/07/20 04:26:16;;;;;;;33.88;16.35;;;;;;;27.47;63.79;99357.77;1713207;83;21274;-87
2021/07/20 04:29:21;;;;;;;32.28;14.33;;;;;;;27.61;63.85;99357.77;1714550;83;21337;-79
2021/07/20 04:32:27;;;;;;;37.48;15.43;;;;;;;27.72;63.46;99362.92;1714356;83;21364;-79
2021/07/20 04:35:32;;;;;;;38.50;17.42;;;;;;;27.84;63.50;99359.56;1714224;83;21321;-86
2021/07/20 04:38:43;;;;;;;39.40;17.82;;;;;;;27.91;63.68;99360.56;1691152;83;21316;-86
2021/07/20 04:41:49;;;;;;;38.73;17.52;;;;;;;27.97;63.19;99369.14;1714644;83;21325;-79
2021/07/20 04:44:54;;;;;;;48.10;16.20;;;;;;;27.88;63.53;99371.02;1714556;83;21305;-86
2021/07/20 04:48:01;;;;;;;45.08;15.63;;;;;;;27.80;63.70;99370.34;1713722;83;21293;-79
2021/07/20 04:51:08;;;;;;;35.88;15.08;;;;;;;27.72;63.89;99381.75;1700423;83;21230;-78
2021/07/20 04:54:12;;;;;;;42.90;16.05;;;;;;;27.68;64.65;99370.84;1714489;83;21334;-80
2021/07/20 04:57:19;;;;;;;45.28;15.58;;;;;;;27.78;64.81;99372.64;1714682;83;21830;-80
2021/07/20 05:00:25;;;;;;;36.00;14.98;;;;;;;27.92;64.37;99367.27;1714589;83;21854;-88
2021/07/20 05:03:31;;;;;;;41.77;14.45;;;;;;;28.08;63.57;99368.33;1714388;83;21250;-80
2021/07/20 05:06:38;;;;;;;36.33;15.03;;;;;;;28.25;63.39;99371.32;1714642;83;21381;-80
2021/07/20 05:09:44;;;;;;;39.23;15.68;;;;;;;28.38;62.52;99368.26;1688023;83;21770;-87
2021/07/20 05:12:50;;;;;;;41.85;16.02;;;;;;;28.57;61.80;99364.70;1714671;83;21289;-80
2021/07/20 05:16:05;;;;;;;38.55;13.68;;;;;;;28.57;61.80;99364.70;1714228;83;21250;-88
2021/07/20 05:19:12;;;;;;;36.77;14.38;;;;;;;28.66;62.17;99369.81;1714079;82;21280;-87
2021/07/20 05:22:20;;;;;;;44.45;14.60;;;;;;;28.75;61.99;99365.09;1722735;82;21304;-80
2021/07/20 05:25:25;;;;;;;38.80;13.22;;;;;;;28.94;61.62;99370.52;1669147;85;21284;-80
2021/07/20 05:28:34;;;;;;;31.90;13.28;;;;;;;29.07;61.09;99378.64;1664161;85;21287;-79
2021/07/20 05:31:41;;;;;;;28.12;13.90;;;;;;;29.21;60.26;99377.98;1674284;85;21189;-80
2021/07/20 05:34:46;;;;;;;24.63;11.33;;;;;;;29.29;60.08;99388.47;1651191;87;21411;-80
2021/07/20 05:37:56;;;;;;;38.85;12.58;;;;;;;29.34;59.50;99389.49;1675350;84;21279;-80
2021/07/20 05:41:04;;;;;;;36.15;13.00;;;;;;;29.41;59.45;99390.70;1678191;85;21340;-80
2021/07/20 05:44:11;;;;;;;24.87;12.73;;;;;;;29.50;58.89;99400.03;1664343;86;21186;-87
2021/07/20 05:53:33;;;;;;;25.97;11.45;;;;;;;29.75;59.88;99405.55;1841681;76;22847;-80
2021/07/20 05:56:56;;;;;;;35.30;13.48;;;;;;;29.75;59.43;99418.23;1798235;79;21271;-80
2021/07/20 06:00:08;;;;;;;30.27;13.40;;;;;;;29.76;58.67;99417.06;1798015;79;21201;-80
2021/07/20 06:03:32;;;;;;;35.90;12.35;;;;;;;29.76;59.23;99413.42;1764453;80;21216;-80
2021/07/20 06:06:38;;;;;;;34.90;11.53;;;;;;;29.76;59.23;99413.42;1767309;79;21322;-80
2021/07/20 06:09:44;;;;;;;32.65;12.40;;;;;;;29.87;59.26;99423.81;1769682;80;21295;-80
2021/07/20 06:12:51;;;;;;;36.40;10.98;;;;;;;29.98;58.02;99426.61;1768666;80;21735;-80
2021/07/20 06:15:57;;;;;;;37.55;11.65;;;;;;;30.10;57.42;99419.75;1769883;80;21160;-80
2021/07/20 06:19:03;;;;;;;31.77;11.35;;;;;;;30.21;57.24;99425.97;1746076;79;21274;-81
2021/07/20 06:22:11;;;;;;;31.95;10.80;;;;;;;30.33;57.51;99425.31;1748266;80;21208;-80
2021/07/20 06:25:25;;;;;;;28.70;11.12;;;;;;;30.46;56.96;99426.58;1721421;83;21609;-80
2021/07/20 06:28:29;;;;;;;30.17;10.85;;;;;;;30.60;57.28;99427.84;1691514;83;22533;-80
2021/07/20 06:31:36;;;;;;;27.05;11.10;;;;;;;30.75;55.84;99427.38;1723992;82;21340;-80
2021/07/20 06:34:44;;;;;;;32.13;10.68;;;;;;;30.85;55.59;99429.61;1741354;82;21334;-80
2021/07/20 06:37:52;;;;;;;32.38;10.53;;;;;;;30.92;54.46;99420.08;1740431;82;21291;-81
2021/07/20 06:40:59;;;;;;;20.27;9.85;;;;;;;31.01;55.48;99413.26;1718124;82;21296;-80
2021/07/20 06:44:04;;;;;;;26.30;9.98;;;;;;;31.12;54.76;99410.91;1728785;82;21345;-80
2021/07/20 06:47:11;;;;;;;33.20;11.85;;;;;;;31.19;55.53;99408.39;1707572;82;21720;-80
2021/07/20 06:50:20;;;;;;;27.50;11.08;;;;;;;31.26;55.46;99409.30;1724028;82;21824;-80
2021/07/20 06:53:25;;;;;;;36.15;10.85;;;;;;;31.30;54.57;99405.50;1733497;82;21336;-81
2021/07/20 06:56:44;;;;;;;36.88;10.03;;;;;;;31.37;54.53;99399.33;1733660;82;21296;-80
2021/07/20 06:59:48;;;;;;;29.00;10.05;;;;;;;31.45;52.56;99403.30;1725194;82;21322;-80
2021/07/20 07:02:59;;;;;;;35.65;10.18;;;;;;;31.49;52.74;99395.81;1719169;82;21177;-82
2021/07/20 07:06:07;;;;;;;36.93;10.80;;;;;;;31.52;52.82;99400.22;1734530;82;21926;-82
2021/07/20 07:09:13;;;;;;;26.37;9.23;;;;;;;31.52;53.22;99399.36;1734596;82;21308;-80
2021/07/20 07:12:18;;;;;;;35.10;10.43;;;;;;;31.55;53.29;99400.11;1707919;83;21328;-85
2021/07/20 07:15:23;;;;;;;27.62;9.20;;;;;;;31.57;53.03;99400.58;1683281;83;21292;-82
2021/07/20 07:18:29;;;;;;;31.70;9.75;;;;;;;31.55;53.37;99398.69;1684118;82;21285;-82
2021/07/20 07:21:34;;;;;;;34.05;10.25;;;;;;;31.58;54.54;99396.62;1713886;82;21179;-82
2021/07/20 07:24:40;;;;;;;31.62;8.80;;;;;;;31.65;53.93;99396.91;1715742;82;21299;-82
2021/07/20 07:27:48;;;;;;;45.92;10.38;;;;;;;31.68;52.95;99401.06;1698270;82;21294;-82
2021/07/20 07:30:55;;;;;;;33.18;9.43;;;;;;;31.73;53.73;99398.87;1718237;82;21795;-82
2021/07/20 07:34:01;;;;;;;20.88;9.43;;;;;;;31.78;52.31;99398.68;1703773;84;21571;-81
2021/07/20 07:37:06;;;;;;;31.17;8.75;;;;;;;31.88;51.93;99391.84;1722181;82;21835;-82
2021/07/20 07:40:15;;;;;;;22.10;8.15;;;;;;;31.98;50.94;99390.63;1721872;82;21241;-82
2021/07/20 07:43:20;;;;;;;21.68;8.73;;;;;;;32.05;51.78;99393.77;1726045;82;21310;-82
2021/07/20 07:46:25;;;;;;;29.82;9.23;;;;;;;32.10;51.13;99385.08;1715758;83;21294;-82
2021/07/20 07:49:34;;;;;;;17.98;7.60;;;;;;;32.15;50.31;99386.29;1709075;82;21328;-82
2021/07/20 07:52:39;;;;;;;23.65;8.30;;;;;;;32.19;50.52;99392.92;1728438;82;21284;-82
2021/07/20 07:55:44;;;;;;;26.95;8.45;;;;;;;32.27;50.27;99386.36;1692126;85;21291;-82
2021/07/20 07:58:51;;;;;;;28.45;7.65;;;;;;;32.35;49.67;99397.97;1693222;85;21382;-82
2021/07/20 08:01:58;;;;;;;28.55;7.80;;;;;;;32.37;49.38;99391.41;1691456;85;21705;-82
2021/07/20 08:05:03;;;;;;;38.70;7.87;;;;;;;32.42;48.69;99399.69;1705670;83;21299;-82
2021/07/20 08:08:10;;;;;;;29.27;7.72;;;;;;;32.49;46.67;99390.91;1669697;85;21300;-82
2021/07/20 08:11:17;;;;;;;27.65;7.70;;;;;;;32.56;46.79;99394.61;1680988;85;21191;-82
2021/07/20 08:14:24;;;;;;;28.40;7.60;;;;;;;32.59;46.41;99389.66;1708158;83;21307;-81
2021/07/20 08:17:29;;;;;;;22.73;8.30;;;;;;;32.63;46.65;99386.97;1697601;83;21287;-82
2021/07/20 08:20:34;;;;;;;31.52;9.30;;;;;;;32.68;46.95;99391.01;1698386;84;21610;-82
2021/07/20 08:23:40;;;;;;;24.87;7.87;;;;;;;32.71;47.93;99392.56;1688788;83;21179;-82
2021/07/20 08:26:59;;;;;;;21.70;8.43;;;;;;;32.79;48.37;99395.06;1683361;85;21207;-82
2021/07/20 08:30:06;;;;;;;34.15;9.15;;;;;;;32.82;47.00;99392.38;1711894;83;21283;-82
2021/07/20 08:33:13;;;;;;;24.63;8.83;;;;;;;32.92;47.60;99390.32;1699822;84;21319;-82
2021/07/20 08:36:18;;;;;;;33.02;8.33;;;;;;;32.94;47.59;99395.06;1716812;83;21248;-81
2021/07/20 08:39:23;;;;;;;30.08;8.40;;;;;;;32.97;45.21;99397.19;1712043;83;21837;-81
2021/07/20 08:42:55;;;;;;;32.73;8.80;;;;;;;32.93;44.87;99387.12;1718484;83;21326;-82
2021/07/20 08:46:08;;;;;;;24.82;8.48;;;;;;;32.99;46.08;99393.44;1696679;83;21948;-82
2021/07/20 08:49:45;;;;;;;22.98;7.22;;;;;;;33.04;44.72;99391.80;1681984;85;21210;-82
2021/07/20 08:53:01;;;;;;;22.10;7.83;;;;;;;33.11;45.59;99391.22;1683752;85;21243;-82
2021/07/20 08:56:07;;;;;;;29.57;8.45;;;;;;;33.19;44.39;99394.56;1674518;84;21887;-82
2021/07/20 08:59:15;;;;;;;21.07;8.60;;;;;;;33.17;44.04;99390.67;1691617;83;21308;-82
2021/07/20 09:02:37;;;;;;;23.57;8.70;;;;;;;33.20;44.58;99394.20;1718293;82;21474;-82
2021/07/20 09:06:03;;;;;;;37.00;8.50;;;;;;;33.25;44.34;99394.56;1716964;82;21691;-82
2021/07/20 09:09:18;;;;;;;29.60;9.13;;;;;;;33.24;43.22;99395.75;1726326;83;21195;-82
2021/07/20 09:12:34;;;;;;;26.93;8.50;;;;;;;33.20;44.64;99389.95;1726160;83;21190;-82
2021/07/20 09:15:38;;;;;;;33.20;10.75;;;;;;;33.18;44.65;99383.81;1706393;83;21296;-82
2021/07/20 09:18:57;;;;;;;29.25;11.55;;;;;;;33.26;43.64;99385.70;1727016;83;21300;-82
2021/07/20 09:22:07;;;;;;;36.03;11.20;;;;;;;33.31;43.61;99383.23;1727264;83;21335;-82
2021/07/20 09:25:16;;;;;;;35.58;10.70;;;;;;;33.32;43.64;99387.16;1722091;83;22001;-82
2021/07/20 09:28:46;;;;;;;37.67;10.45;;;;;;;33.35;44.68;99383.37;1716703;83;21325;-82
2021/07/20 09:32:12;;;;;;;38.35;11.18;;;;;;;33.42;45.53;99389.31;1707971;83;21304;-82
2021/07/20 09:35:28;;;;;;;29.92;10.43;;;;;;;33.49;44.46;99385.33;1706803;83;21207;-82
2021/07/20 09:38:56;;;;;;;36.20;10.58;;;;;;;33.54;44.75;99379.42;1710304;83;21294;-82
2021/07/20 09:42:08;;;;;;;41.00;11.70;;;;;;;33.56;44.02;99380.73;1717051;83;21194;-82
2021/07/20 09:45:21;;;;;;;27.62;10.95;;;;;;;33.57;44.29;99373.06;1715973;83;21317;-82
2021/07/20 09:48:46;;;;;;;36.30;11.48;;;;;;;33.57;45.32;99373.06;1704449;84;21267;-82
2021/07/20 09:52:31;;;;;;;29.25;11.03;;;;;;;33.59;44.37;99380.61;1705505;84;21848;-83
2021/07/20 09:55:58;;;;;;;38.28;10.85;;;;;;;33.58;42.97;99371.28;1716984;83;21355;-82
2021/07/20 09:59:41;;;;;;;40.10;10.58;;;;;;;33.51;44.57;99375.89;1725891;82;21312;-82
2021/07/20 10:03:04;;;;;;;30.60;10.43;;;;;;;33.52;45.06;99367.63;1723381;83;21295;-82
2021/07/20 10:06:46;;;;;;;22.37;9.55;;;;;;;33.51;44.46;99365.38;1690303;83;21358;-82
2021/07/20 10:10:07;;;;;;;27.95;8.70;;;;;;;33.55;43.83;99355.59;1727192;83;21169;-82
2021/07/20 10:13:30;;;;;;;32.08;8.60;;;;;;;33.54;43.37;99360.41;1727487;83;21303;-82
2021/07/20 10:16:55;;;;;;;35.13;10.55;;;;;;;33.50;43.33;99363.73;1726341;83;21774;-82
2021/07/20 10:20:17;;;;;;;33.40;7.72;;;;;;;33.58;44.16;99357.70;1727498;83;21363;-82
2021/07/20 10:23:53;;;;;;;37.50;8.43;;;;;;;33.66;43.97;99362.44;1727186;82;21303;-82
2021/07/20 10:27:15;;;;;;;22.90;8.08;;;;;;;33.67;42.86;99354.16;1732872;82;21890;-82
2021/07/20 10:30:21;;;;;;;32.80;8.13;;;;;;;33.67;41.84;99357.59;1734395;82;21735;-82
2021/07/20 10:33:38;;;;;;;22.25;8.88;;;;;;;33.59;42.44;99355.09;1720217;82;21611;-82
2021/07/20 10:36:55;;;;;;;27.62;9.20;;;;;;;33.57;43.18;99358.30;1702578;83;21302;-82
2021/07/20 10:40:15;;;;;;;24.20;7.80;;;;;;;33.55;41.90;99348.50;1704463;82;21199;-83
2021/07/20 10:43:52;;;;;;;22.20;7.92;;;;;;;33.58;41.82;99353.45;1718294;82;21608;-82
2021/07/20 10:47:00;;;;;;;27.22;8.48;;;;;;;33.59;40.66;99350.84;1669679;82;21201;-82
2021/07/20 10:50:14;;;;;;;19.80;8.15;;;;;;;33.60;40.96;99342.59;1712111;82;21241;-82
2021/07/20 10:53:38;;;;;;;35.95;8.25;;;;;;;33.65;41.65;99346.61;1734498;82;21359;-82
2021/07/20 10:57:01;;;;;;;31.05;7.95;;;;;;;33.70;41.90;99344.95;1732821;82;21848;-82
2021/07/20 11:00:16;;;;;;;21.40;6.42;;;;;;;33.72;41.53;99344.00;1733652;82;21288;-82
2021/07/20 11:04:05;;;;;;;24.72;6.90;;;;;;;33.71;38.32;99346.61;1734491;82;21836;-82
2021/07/20 11:07:14;;;;;;;22.60;7.23;;;;;;;33.73;39.20;99348.48;1730755;82;21328;-82
2021/07/20 11:10:30;;;;;;;24.18;6.72;;;;;;;33.77;37.30;99347.19;1734925;82;21300;-82
2021/07/20 11:13:41;;;;;;;29.23;8.48;;;;;;;33.82;38.40;99342.70;1722167;82;21284;-82
2021/07/20 11:16:47;;;;;;;26.52;7.17;;;;;;;33.88;40.71;99336.19;1733849;82;21225;-82
2021/07/20 11:19:52;;;;;;;31.48;7.33;;;;;;;33.93;41.44;99333.97;1709991;83;21824;-82
2021/07/20 11:22:58;;;;;;;24.00;7.22;;;;;;;33.95;40.05;99332.21;1705980;82;21351;-81
2021/07/20 11:26:05;;;;;;;18.98;6.67;;;;;;;33.90;38.65;99326.75;1705155;84;21830;-82
2021/07/20 11:29:10;;;;;;;23.25;6.45;;;;;;;33.87;40.41;99328.28;1705325;84;21239;-82
2021/07/20 11:32:18;;;;;;;23.45;7.37;;;;;;;33.89;38.90;99321.67;1690186;82;21154;-82
2021/07/20 11:35:26;;;;;;;23.63;7.40;;;;;;;33.90;39.98;99313.39;1727065;83;21297;-82
2021/07/20 11:38:33;;;;;;;21.55;6.75;;;;;;;33.91;39.38;99317.05;1705198;84;21964;-82
2021/07/20 11:42:17;;;;;;;19.75;7.37;;;;;;;33.91;38.49;99312.80;1705312;84;21838;-82
2021/07/20 11:45:24;;;;;;;31.85;7.80;;;;;;;33.93;37.86;99313.28;1712180;82;21280;-83
2021/07/20 11:48:29;;;;;;;21.62;7.40;;;;;;;33.97;38.91;99314.23;1734539;82;21249;-82
2021/07/20 11:51:49;;;;;;;31.35;6.87;;;;;;;34.00;38.69;99314.95;1734793;82;21379;-82
2021/07/20 11:55:17;;;;;;;15.72;6.60;;;;;;;34.01;39.67;99307.48;1733276;82;21359;-82
2021/07/20 11:58:49;;;;;;;18.93;8.63;;;;;;;34.00;39.08;99306.44;1733579;82;21205;-82
2021/07/20 12:02:25;;;;;;;42.75;23.10;;;;;;;34.00;38.90;99303.60;1733122;82;21351;-82
2021/07/20 12:05:50;;;;;;;35.55;14.93;;;;;;;33.99;38.72;99301.36;1734656;82;21249;-82
2021/07/20 12:09:10;;;;;;;21.87;7.12;;;;;;;34.00;39.85;99303.60;1733033;82;21316;-82
2021/07/20 12:12:18;;;;;;;20.02;7.10;;;;;;;33.97;39.50;99302.89;1711623;82;21896;-82
2021/07/20 12:15:29;;;;;;;18.52;7.05;;;;;;;33.92;38.89;99297.43;1728314;82;21275;-82
2021/07/20 12:18:36;;;;;;;33.63;11.05;;;;;;;33.90;39.33;99300.63;1734583;82;21838;-81
2021/07/20 12:21:42;;;;;;;24.60;7.40;;;;;;;33.91;39.72;99292.95;1733180;82;21316;-82
2021/07/20 12:27:36;;;;;;;26.93;7.70;;;;;;;33.98;40.26;99291.20;1840554;76;28018;-81
2021/07/20 12:30:41;;;;;;;27.90;8.38;;;;;;;33.93;38.88;99287.77;1818246;79;21786;-80
2021/07/20 12:33:51;;;;;;;19.50;7.10;;;;;;;33.94;40.12;99289.41;1819183;79;21278;-82
2021/07/20 12:36:56;;;;;;;23.80;7.00;;;;;;;33.95;40.38;99291.91;1819635;79;21369;-82
2021/07/20 12:40:08;;;;;;;20.97;6.70;;;;;;;33.98;40.31;99296.05;1820149;78;21160;-82
2021/07/20 12:43:20;;;;;;;25.27;6.90;;;;;;;33.97;39.58;99285.30;1818948;79;21828;-81
2021/07/20 12:46:25;;;;;;;23.52;7.05;;;;;;;33.96;37.95;99289.89;1820273;79;21247;-82
2021/07/20 12:49:31;;;;;;;26.17;7.55;;;;;;;33.94;38.77;99293.66;1820616;79;21761;-82
2021/07/20 12:52:36;;;;;;;23.20;7.30;;;;;;;33.93;38.69;99294.85;1820681;79;21287;-82
2021/07/20 12:55:45;;;;;;;22.65;6.45;;;;;;;33.90;39.35;99289.88;1791084;79;21239;-82
2021/07/20 12:58:52;;;;;;;25.05;7.08;;;;;;;33.88;39.96;99290.81;1813561;79;21783;-82
2021/07/20 13:01:58;;;;;;;18.55;7.20;;;;;;;33.86;38.64;99284.09;1786705;79;21337;-82
2021/07/20 13:05:03;;;;;;;16.82;6.30;;;;;;;33.83;38.66;99279.16;1783921;80;21236;-82
2021/07/20 13:08:09;;;;;;;19.77;6.22;;;;;;;33.80;38.86;99279.85;1769743;80;21399;-82
2021/07/20 13:11:14;;;;;;;23.38;6.67;;;;;;;33.77;38.89;99284.81;1784906;80;21890;-82
2021/07/20 13:14:21;;;;;;;21.62;7.05;;;;;;;33.72;39.27;99277.37;1788458;80;21347;-82
2021/07/20 13:17:28;;;;;;;16.17;5.97;;;;;;;33.69;39.22;99276.69;1784260;80;21526;-82
2021/07/20 13:20:36;;;;;;;23.38;6.55;;;;;;;33.68;39.73;99273.59;1789656;80;21292;-82
2021/07/20 13:23:45;;;;;;;22.32;5.95;;;;;;;33.70;40.07;99284.00;1784703;80;21303;-82
2021/07/20 13:26:50;;;;;;;25.92;7.08;;;;;;;33.63;39.27;99275.84;1768114;80;21791;-82
2021/07/20 13:29:57;;;;;;;18.25;6.25;;;;;;;33.58;39.82;99275.48;1783328;80;21295;-81
2021/07/20 13:33:02;;;;;;;24.55;6.75;;;;;;;33.52;38.77;99274.91;1755376;80;21791;-82
2021/07/20 13:36:09;;;;;;;16.07;5.92;;;;;;;33.46;39.18;99266.41;1758858;80;21153;-81
2021/07/20 13:39:18;;;;;;;19.85;6.30;;;;;;;33.43;39.47;99271.36;1772498;80;21280;-82
2021/07/20 13:42:25;;;;;;;25.10;7.12;;;;;;;33.44;39.88;99263.69;1773809;80;22279;-82
2021/07/20 13:45:31;;;;;;;30.43;6.40;;;;;;;33.45;38.58;99259.66;1755063;80;21335;-82
2021/07/20 13:48:36;;;;;;;18.45;6.47;;;;;;;33.49;39.49;99264.86;1754218;82;21315;-82
2021/07/20 13:51:42;;;;;;;25.12;6.15;;;;;;;33.49;40.29;99266.28;1754094;82;21193;-82
2021/07/20 13:54:51;;;;;;;25.48;6.92;;;;;;;33.47;39.61;99263.81;1755272;80;21358;-82
2021/07/20 13:57:57;;;;;;;23.83;6.80;;;;;;;33.42;40.83;99262.59;1752701;82;21326;-81
2021/07/20 14:01:04;;;;;;;22.40;7.08;;;;;;;33.41;39.69;99258.12;1753261;81;21513;-81
2021/07/20 14:04:12;;;;;;;22.10;7.12;;;;;;;33.46;40.81;99265.59;1752741;82;21720;-81
2021/07/20 14:07:20;;;;;;;27.07;6.95;;;;;;;33.46;40.46;99257.09;1748591;82;21326;-82
2021/07/20 14:10:25;;;;;;;19.70;6.90;;;;;;;33.44;40.61;99252.34;1726365;82;21220;-82
2021/07/20 14:13:33;;;;;;;35.10;8.40;;;;;;;33.42;40.55;99258.94;1753674;80;21307;-82
2021/07/20 14:16:39;;;;;;;34.05;7.97;;;;;;;33.36;41.25;99258.92;1752600;81;21380;-81
2021/07/20 14:19:45;;;;;;;20.27;7.70;;;;;;;33.30;41.23;99256.91;1760720;80;21931;-82
2021/07/20 14:22:51;;;;;;;24.43;6.85;;;;;;;33.27;41.95;99253.39;1748694;82;21888;-82
2021/07/20 14:26:01;;;;;;;29.75;8.08;;;;;;;33.29;42.39;99250.42;1748427;82;21358;-82
2021/07/20 14:29:07;;;;;;;28.73;7.25;;;;;;;33.29;41.99;99249.60;1746946;82;21926;-82
2021/07/20 14:32:22;;;;;;;25.02;7.83;;;;;;;33.27;41.94;99238.63;1748406;82;21905;-81
2021/07/20 14:35:40;;;;;;;26.02;6.80;;;;;;;33.25;42.25;99235.91;1748422;82;22789;-81
2021/07/20 14:38:52;;;;;;;23.10;7.15;;;;;;;33.21;42.43;99235.77;1756264;80;21323;-81
2021/07/20 14:42:12;;;;;;;26.33;7.42;;;;;;;33.17;42.84;99218.41;1752615;82;21291;-82
2021/07/20 14:45:21;;;;;;;27.70;6.40;;;;;;;33.11;42.96;99217.83;1741200;82;21342;-81
2021/07/20 14:48:25;;;;;;;22.50;6.25;;;;;;;33.06;43.26;99220.89;1753230;82;21961;-81
2021/07/20 14:51:30;;;;;;;25.48;8.10;;;;;;;33.01;43.55;99209.80;1753983;82;21323;-82
2021/07/20 14:54:36;;;;;;;17.75;6.92;;;;;;;32.97;43.91;99215.93;1722570;82;21299;-81
2021/07/20 14:57:44;;;;;;;37.55;7.33;;;;;;;32.92;44.80;99211.91;1753229;82;21240;-81